Messwerte Syracuse

Temperatur

Temperatur
°C
1576260000 13.00 13.00 6
1576263600 14.00 14.00 6
1576267200 15.00 15.00 5
1576270800 16.00 16.00 4
1576274400 17.00 17.00 1
1576278000 18.00 18.00 1
1576281600 19.00 19.00 1
1576285200 20.00 20.00 1
1576288800 21.00 21.00 2
1576292400 22.00 22.00 2
1576296000 23.00 23.00 3
1576299600 0.00 0.00
1576303200 1.00 1.00 3
1576306800 2.00 2.00 3
1576310400 3.00 3.00 3
1576314000 4.00 4.00
1576317600 5.00 5.00 4
1576321200 6.00 6.00
1576324800 7.00 7.00 4
1576328400 8.00 8.00 4
1576332000 9.00 9.00 4
1576335600 10.00 10.00 5
1576339200 11.00 11.00 6
1576342800 12.00 12.00 7

Aktuellste Messwerte

Wettercharakter
Wetter: bedeckt, wenig Regen
Temperatur
7 °C
Feuchtigkeit
93 %
Wind
5 km/hWindrichtung: Nordost
Luftdruck
990 hPa
Messzeit: 14. Dezember 2019, 13.00Datenquelle: METAR

Weitere Messstationen in der Nähe

Messstation Temperatur Entfernung
Fulton 7 °C 34 km
Ithaca 5 °C 75 km
Penn Yan 4 °C 93 km
Watertown NY 4 °C 98 km
Binghamton 6 °C 101 km
Fort Drum 4 °C 108 km
Point Petre 4 °C 115 km

Wind

Windrichtung Böen Mittelwind
° km/h km/h
1576260000 13.00 12.00 - 13.00 180° 25
1576263600 14.00 13.00 - 14.00 130° 20
1576267200 15.00 14.00 - 15.00 100° 10
1576270800 16.00 15.00 - 16.00 80° 10
1576274400 17.00 16.00 - 17.00 70° 15
1576278000 18.00 17.00 - 18.00 60° 5
1576281600 19.00 18.00 - 19.00 40° 5
1576285200 20.00 19.00 - 20.00 90° 15
1576288800 21.00 20.00 - 21.00 60° 10
1576292400 22.00 21.00 - 22.00 70° 10
1576296000 23.00 22.00 - 23.00 50° 5
1576299600 0.00 23.00 - 0.00
1576303200 1.00 0.00 - 1.00 70° 10
1576306800 2.00 1.00 - 2.00 70° 10
1576310400 3.00 2.00 - 3.00 60° 15
1576314000 4.00 3.00 - 4.00
1576317600 5.00 4.00 - 5.00 70° 10
1576321200 6.00 5.00 - 6.00
1576324800 7.00 6.00 - 7.00 90° 10
1576328400 8.00 7.00 - 8.00 60° 5
1576332000 9.00 8.00 - 9.00 70° 5
1576335600 10.00 9.00 - 10.00 0
1576339200 11.00 10.00 - 11.00 0
1576342800 12.00 11.00 - 12.00 0

Ihre Wetterstation

Fehlt Ihre Wetterstation auf unserem Portal?

Schreiben Sie an network@meteonews.ch

Klima

Wann ist es am wärmsten? Wann regnet es am wenigsten? Unsere Klimadaten geben Auskunft.